createdAt,value
2023-01-27T00:00:29.256Z,29.28
2023-01-27T00:02:57.144Z,28.93
2023-01-27T00:05:25.430Z,29.19
2023-01-27T00:07:53.277Z,29.17
2023-01-27T00:10:21.215Z,29.04
2023-01-27T00:13:06.468Z,29.11
2023-01-27T00:15:34.405Z,28.98
2023-01-27T00:18:02.263Z,29.44
2023-01-27T00:20:47.717Z,29.05
2023-01-27T00:23:33.266Z,29.25
2023-01-27T00:26:01.401Z,29.50
2023-01-27T00:28:31.324Z,29.38
2023-01-27T00:30:59.847Z,29.26
2023-01-27T00:33:27.046Z,29.35
2023-01-27T00:35:54.931Z,29.26
2023-01-27T00:38:22.820Z,29.14
2023-01-27T00:41:10.737Z,29.47
2023-01-27T00:43:38.604Z,29.55
2023-01-27T00:46:06.557Z,28.88
2023-01-27T00:48:34.518Z,29.19
2023-01-27T00:51:02.393Z,29.18
2023-01-27T00:53:30.240Z,29.26
2023-01-27T00:55:59.116Z,29.10
2023-01-27T00:58:27.006Z,29.48
2023-01-27T01:00:54.865Z,29.05
2023-01-27T01:03:22.745Z,28.98
2023-01-27T01:05:50.568Z,29.50
2023-01-27T01:08:18.445Z,29.30
2023-01-27T01:10:46.311Z,29.05
2023-01-27T01:13:14.814Z,29.48
2023-01-27T01:15:42.694Z,29.24
2023-01-27T01:18:10.641Z,29.01
2023-01-27T01:20:38.861Z,29.54
2023-01-27T01:23:06.744Z,29.35
2023-01-27T01:25:34.597Z,29.46
2023-01-27T01:28:02.419Z,29.10
2023-01-27T01:30:30.329Z,29.12
2023-01-27T01:32:58.311Z,29.59
2023-01-27T01:35:26.222Z,29.55
2023-01-27T01:37:54.202Z,29.34
2023-01-27T01:40:23.559Z,29.55
2023-01-27T01:42:53.202Z,29.64
2023-01-27T01:45:21.075Z,29.10
2023-01-27T01:47:48.949Z,29.05
2023-01-27T01:50:16.857Z,29.23
2023-01-27T01:52:44.760Z,29.39
2023-01-27T01:55:12.869Z,29.58
2023-01-27T01:57:42.809Z,29.15
2023-01-27T02:00:10.701Z,29.80
2023-01-27T02:02:38.642Z,29.31
2023-01-27T02:05:06.526Z,29.48
2023-01-27T02:07:34.421Z,29.05
2023-01-27T02:10:02.320Z,29.59
2023-01-27T02:12:30.137Z,29.60
2023-01-27T02:14:58.080Z,29.13
2023-01-27T02:17:25.958Z,29.48
2023-01-27T02:19:53.879Z,29.71
2023-01-27T02:22:21.730Z,29.37
2023-01-27T02:24:49.703Z,29.77
2023-01-27T02:27:17.647Z,29.55
2023-01-27T02:29:45.599Z,29.55
2023-01-27T02:32:13.468Z,29.48
2023-01-27T02:34:41.269Z,29.36
2023-01-27T02:37:09.089Z,29.32
2023-01-27T02:39:36.935Z,29.47
2023-01-27T02:42:04.847Z,29.21
2023-01-27T02:44:32.674Z,29.21
2023-01-27T02:47:00.600Z,29.40
2023-01-27T02:49:28.472Z,29.43
2023-01-27T02:51:56.386Z,29.38
2023-01-27T02:54:24.220Z,29.55
2023-01-27T02:56:52.080Z,29.18
2023-01-27T02:59:19.992Z,29.09
2023-01-27T03:01:48.162Z,29.00
2023-01-27T03:04:16.076Z,29.79
2023-01-27T03:06:43.939Z,29.09
2023-01-27T03:09:11.790Z,29.04
2023-01-27T03:11:57.479Z,29.42
2023-01-27T03:14:42.796Z,29.14
2023-01-27T03:17:28.303Z,29.69
2023-01-27T03:19:56.194Z,29.50
2023-01-27T03:22:24.161Z,29.51
2023-01-27T03:24:52.021Z,29.69
2023-01-27T03:27:19.891Z,29.00
2023-01-27T03:29:57.059Z,29.26
2023-01-27T03:32:24.900Z,29.47
2023-01-27T03:34:52.727Z,29.73
2023-01-27T03:37:38.113Z,29.26
2023-01-27T03:40:23.604Z,29.27
2023-01-27T03:43:09.354Z,29.17
2023-01-27T03:45:54.946Z,29.83
2023-01-27T03:48:22.925Z,29.46
2023-01-27T03:50:53.896Z,29.73
2023-01-27T03:53:21.833Z,29.44
2023-01-27T03:55:49.728Z,29.44
2023-01-27T03:58:19.260Z,29.65
2023-01-27T04:00:47.659Z,29.42
2023-01-27T04:03:32.917Z,29.75
2023-01-27T04:06:18.260Z,29.93
2023-01-27T04:08:46.220Z,29.51
2023-01-27T04:11:31.961Z,30.00
2023-01-27T04:13:59.909Z,29.53
2023-01-27T04:16:29.073Z,29.51
2023-01-27T04:18:56.986Z,29.82
2023-01-27T04:21:25.402Z,30.13
2023-01-27T04:23:53.351Z,30.17
2023-01-27T04:26:21.262Z,30.23
2023-01-27T04:28:49.319Z,29.65
2023-01-27T04:31:17.287Z,29.78
2023-01-27T04:33:45.285Z,30.07
2023-01-27T04:36:16.430Z,29.57
2023-01-27T04:38:44.375Z,29.42
2023-01-27T04:41:12.302Z,29.60
2023-01-27T04:43:40.153Z,29.55
2023-01-27T04:46:08.121Z,29.89
2023-01-27T04:48:36.054Z,29.53
2023-01-27T04:51:04.020Z,29.54
2023-01-27T04:53:32.017Z,29.79
2023-01-27T04:55:59.993Z,29.66
2023-01-27T04:58:27.846Z,30.02
2023-01-27T05:00:55.692Z,29.90
2023-01-27T05:03:23.582Z,29.65
2023-01-27T05:05:51.481Z,29.98
2023-01-27T05:08:19.320Z,30.13
2023-01-27T05:10:47.188Z,30.13
2023-01-27T05:13:15.069Z,29.70
2023-01-27T05:15:42.982Z,30.08
2023-01-27T05:18:11.017Z,29.79
2023-01-27T05:20:38.975Z,29.54
2023-01-27T05:23:24.148Z,29.99
2023-01-27T05:25:51.998Z,29.59
2023-01-27T05:28:19.836Z,29.77
2023-01-27T05:30:47.820Z,29.74
2023-01-27T05:33:15.748Z,29.56
2023-01-27T05:35:43.637Z,29.61
2023-01-27T05:38:11.526Z,30.02
2023-01-27T05:40:39.388Z,29.87
2023-01-27T05:43:07.692Z,29.91
2023-01-27T05:45:35.597Z,29.57
2023-01-27T05:48:03.487Z,30.28
2023-01-27T05:50:31.383Z,29.82
2023-01-27T05:52:59.250Z,30.42
2023-01-27T05:55:27.167Z,30.01
2023-01-27T05:57:55.034Z,29.75
2023-01-27T06:00:22.913Z,30.01
2023-01-27T06:02:51.035Z,30.30
2023-01-27T06:05:18.905Z,29.92
2023-01-27T06:07:46.870Z,29.95
2023-01-27T06:10:14.818Z,30.46
2023-01-27T06:12:42.719Z,29.97
2023-01-27T06:15:10.670Z,30.19
2023-01-27T06:17:38.615Z,30.21
2023-01-27T06:20:06.624Z,30.07
2023-01-27T06:22:34.476Z,30.04
2023-01-27T06:25:02.393Z,29.80
2023-01-27T06:27:30.246Z,30.06
2023-01-27T06:29:58.107Z,30.56
2023-01-27T06:32:25.942Z,30.30
2023-01-27T06:34:53.782Z,30.61
2023-01-27T06:37:21.688Z,30.30
2023-01-27T06:39:49.581Z,30.18
2023-01-27T06:42:17.754Z,29.90
2023-01-27T06:44:45.693Z,30.35
2023-01-27T06:47:13.723Z,30.30
2023-01-27T06:49:41.742Z,30.50
2023-01-27T06:52:09.644Z,30.80
2023-01-27T06:54:37.484Z,30.30
2023-01-27T06:57:05.516Z,30.58
2023-01-27T06:59:33.391Z,30.75
2023-01-27T07:02:01.234Z,30.31
2023-01-27T07:04:29.826Z,30.39
2023-01-27T07:06:57.694Z,30.31
2023-01-27T07:09:25.584Z,30.76
2023-01-27T07:11:53.495Z,30.60
2023-01-27T07:14:21.548Z,30.00
2023-01-27T07:16:49.476Z,30.56
2023-01-27T07:19:17.553Z,30.67
2023-01-27T07:21:45.487Z,30.39
2023-01-27T07:24:13.377Z,30.12
2023-01-27T07:26:41.274Z,29.94
2023-01-27T07:29:09.169Z,30.00
2023-01-27T07:31:37.161Z,30.15
2023-01-27T07:34:05.110Z,30.43
2023-01-27T07:36:32.964Z,30.52
2023-01-27T07:39:00.795Z,30.83
2023-01-27T07:41:28.610Z,30.42
2023-01-27T07:43:56.495Z,30.01
2023-01-27T07:46:24.535Z,30.53
2023-01-27T07:48:52.763Z,30.29
2023-01-27T07:51:20.628Z,30.05
2023-01-27T07:53:48.496Z,30.03
2023-01-27T07:56:16.404Z,30.61
2023-01-27T07:58:44.396Z,30.50
2023-01-27T08:01:12.293Z,30.41
2023-01-27T08:03:40.171Z,30.27
2023-01-27T08:06:08.340Z,30.32
2023-01-27T08:08:38.028Z,30.67
2023-01-27T08:11:07.806Z,30.16
2023-01-27T08:13:35.659Z,30.55
2023-01-27T08:16:03.550Z,30.56
2023-01-27T08:18:31.572Z,30.61
2023-01-27T08:20:59.443Z,30.31
2023-01-27T08:23:27.264Z,30.69
2023-01-27T08:25:55.194Z,30.29
2023-01-27T08:28:23.163Z,30.47
2023-01-27T08:30:52.069Z,30.78
2023-01-27T08:33:19.957Z,30.53
2023-01-27T08:35:47.845Z,30.89
2023-01-27T08:38:15.657Z,30.74
2023-01-27T08:40:43.563Z,30.86
2023-01-27T08:43:11.428Z,30.53
2023-01-27T08:45:39.356Z,30.90
2023-01-27T08:48:07.300Z,30.86
2023-01-27T08:50:35.192Z,30.88
2023-01-27T08:53:04.345Z,30.54
2023-01-27T08:55:32.213Z,30.79
2023-01-27T08:58:00.105Z,30.62
2023-01-27T09:00:28.085Z,30.56
2023-01-27T09:02:55.924Z,31.11
2023-01-27T09:05:23.833Z,30.91
2023-01-27T09:07:51.767Z,31.04
2023-01-27T09:10:19.750Z,30.93
2023-01-27T09:12:47.686Z,31.12
2023-01-27T09:15:15.791Z,30.64
2023-01-27T09:17:43.636Z,31.08
2023-01-27T09:20:12.050Z,31.24
2023-01-27T09:22:41.320Z,30.79
2023-01-27T09:25:09.202Z,31.08
2023-01-27T09:27:39.451Z,31.02
2023-01-27T09:30:07.675Z,31.17
2023-01-27T09:32:35.618Z,31.23
2023-01-27T09:35:03.448Z,30.79
2023-01-27T09:37:31.340Z,31.05
2023-01-27T09:39:59.363Z,31.49
2023-01-27T09:42:36.893Z,31.00
2023-01-27T09:45:04.786Z,31.08
2023-01-27T09:47:32.785Z,26.38
2023-01-27T09:50:00.627Z,23.51
2023-01-27T09:52:41.845Z,22.46
2023-01-27T09:55:14.925Z,21.88
2023-01-27T09:57:42.950Z,21.89
2023-01-27T10:00:11.016Z,22.40
2023-01-27T10:02:38.960Z,22.55
2023-01-27T10:05:06.828Z,23.01
2023-01-27T10:07:34.685Z,23.48
2023-01-27T10:10:02.584Z,23.94
2023-01-27T10:12:31.031Z,24.21
2023-01-27T10:14:58.950Z,24.51
2023-01-27T10:17:26.888Z,24.77
2023-01-27T10:19:54.733Z,25.34
2023-01-27T10:22:22.559Z,25.85
2023-01-27T10:24:50.476Z,25.94
2023-01-27T10:27:18.759Z,26.21
2023-01-27T10:29:46.581Z,26.45
2023-01-27T10:32:14.507Z,26.68
2023-01-27T10:34:42.307Z,26.98
2023-01-27T10:37:10.309Z,27.00
2023-01-27T10:39:40.071Z,27.04
2023-01-27T10:42:07.987Z,27.31
2023-01-27T10:44:35.790Z,27.62
2023-01-27T10:47:03.672Z,27.58
2023-01-27T10:49:31.523Z,27.69
2023-01-27T10:51:59.427Z,28.25
2023-01-27T10:54:27.260Z,28.11
2023-01-27T10:56:55.179Z,28.42
2023-01-27T10:59:23.083Z,28.50
2023-01-27T11:01:50.957Z,28.63
2023-01-27T11:04:18.865Z,28.90
2023-01-27T11:06:46.829Z,28.83
2023-01-27T11:09:14.733Z,29.21
2023-01-27T11:11:45.440Z,28.93
2023-01-27T11:14:13.327Z,28.77
2023-01-27T11:16:41.350Z,29.18
2023-01-27T11:19:09.210Z,28.88
2023-01-27T11:21:37.055Z,29.09
2023-01-27T11:24:05.013Z,29.20
2023-01-27T11:26:32.904Z,28.97
2023-01-27T11:29:00.798Z,29.29
2023-01-27T11:31:29.723Z,29.49
2023-01-27T11:33:58.642Z,29.22
2023-01-27T11:36:26.536Z,29.59
2023-01-27T11:38:54.447Z,29.54
2023-01-27T11:41:22.291Z,29.82
2023-01-27T11:43:50.137Z,30.26
2023-01-27T11:46:18.046Z,29.64
2023-01-27T11:48:45.924Z,29.51
2023-01-27T11:51:13.977Z,29.87
2023-01-27T11:53:41.886Z,30.15
2023-01-27T11:56:09.790Z,30.10
2023-01-27T11:58:37.922Z,30.32
2023-01-27T12:01:05.787Z,30.41
2023-01-27T12:03:33.593Z,29.86
2023-01-27T12:06:01.418Z,30.58
2023-01-27T12:08:29.350Z,30.03
2023-01-27T12:10:57.213Z,30.04
2023-01-27T12:13:25.186Z,30.02
2023-01-27T12:15:53.232Z,30.12
2023-01-27T12:18:21.164Z,30.01
2023-01-27T12:20:49.293Z,30.47
2023-01-27T12:23:17.584Z,30.34
2023-01-27T12:25:45.435Z,30.67
2023-01-27T12:28:13.309Z,30.04
2023-01-27T12:30:41.171Z,30.53
2023-01-27T12:33:09.104Z,30.87
2023-01-27T12:35:36.934Z,30.68
2023-01-27T12:38:04.861Z,30.71
2023-01-27T12:40:32.789Z,30.43
2023-01-27T12:43:00.806Z,30.94
2023-01-27T12:45:29.992Z,30.76
2023-01-27T12:47:57.912Z,31.05
2023-01-27T12:50:25.687Z,30.74
2023-01-27T12:52:53.562Z,30.50
2023-01-27T12:55:21.371Z,30.45
2023-01-27T12:57:49.231Z,30.95
2023-01-27T13:00:17.197Z,31.01
2023-01-27T13:02:45.036Z,31.02
2023-01-27T13:05:12.960Z,30.98
2023-01-27T13:07:41.483Z,30.52
2023-01-27T13:10:09.384Z,30.40
2023-01-27T13:12:37.242Z,31.01
2023-01-27T13:15:05.251Z,31.26
2023-01-27T13:17:33.163Z,30.59
2023-01-27T13:20:01.148Z,30.81
2023-01-27T13:22:29.048Z,31.00
2023-01-27T13:24:56.909Z,30.77
2023-01-27T13:27:24.774Z,31.12
2023-01-27T13:29:52.652Z,30.60
2023-01-27T13:32:20.531Z,31.01
2023-01-27T13:34:48.374Z,31.21
2023-01-27T13:37:16.284Z,30.75
2023-01-27T13:39:44.185Z,30.83
2023-01-27T13:42:12.047Z,30.87
2023-01-27T13:44:39.955Z,30.75
2023-01-27T13:47:07.861Z,31.34
2023-01-27T13:49:36.222Z,30.91
2023-01-27T13:52:04.155Z,30.86
2023-01-27T13:54:31.984Z,30.95
2023-01-27T13:57:00.107Z,30.86
2023-01-27T13:59:27.953Z,31.25
2023-01-27T14:01:55.956Z,30.92
2023-01-27T14:04:23.867Z,30.79
2023-01-27T14:06:51.840Z,31.00
2023-01-27T14:09:19.750Z,31.05
2023-01-27T14:11:47.702Z,31.23
2023-01-27T14:14:15.555Z,30.95
2023-01-27T14:16:43.444Z,30.92
2023-01-27T14:19:11.253Z,31.03
2023-01-27T14:21:42.222Z,31.41
2023-01-27T14:24:16.327Z,31.24
2023-01-27T14:26:44.212Z,31.16
2023-01-27T14:29:12.086Z,31.15
2023-01-27T14:31:40.025Z,31.01
2023-01-27T14:34:07.951Z,31.26
2023-01-27T14:36:35.800Z,31.84
2023-01-27T14:39:03.664Z,31.71
2023-01-27T14:41:31.542Z,31.24
2023-01-27T14:43:59.446Z,31.08
2023-01-27T14:46:27.293Z,25.62
2023-01-27T14:48:55.140Z,15.01
2023-01-27T14:51:23.401Z,10.22
2023-01-27T14:53:51.343Z,7.81
2023-01-27T14:56:19.212Z,6.39
2023-01-27T14:58:47.111Z,6.00
2023-01-27T15:01:15.014Z,5.78
2023-01-27T15:03:42.876Z,5.20
2023-01-27T15:06:10.829Z,5.07
2023-01-27T15:08:38.703Z,4.81
2023-01-27T15:11:07.025Z,4.68
2023-01-27T15:13:34.863Z,4.45
2023-01-27T15:16:02.785Z,4.29
2023-01-27T15:18:30.734Z,4.24
2023-01-27T15:21:00.827Z,4.00
2023-01-27T15:23:28.720Z,4.07
2023-01-27T15:25:56.743Z,4.11
2023-01-27T15:28:24.728Z,4.89
2023-01-27T15:30:52.596Z,4.85
2023-01-27T15:33:20.504Z,5.13
2023-01-27T15:35:48.352Z,5.59
2023-01-27T15:38:16.211Z,5.72
2023-01-27T15:40:44.048Z,6.42
2023-01-27T15:43:11.929Z,6.87
2023-01-27T15:45:41.607Z,7.43
2023-01-27T15:48:09.544Z,8.21
2023-01-27T15:50:37.264Z,8.78
2023-01-27T15:53:06.177Z,9.93
2023-01-27T15:55:34.671Z,10.31
2023-01-27T15:58:02.452Z,11.24
2023-01-27T16:00:30.190Z,12.17
2023-01-27T16:02:57.944Z,12.76
2023-01-27T16:05:25.671Z,14.02
2023-01-27T16:07:53.397Z,14.36
2023-01-27T16:10:21.121Z,15.37
2023-01-27T16:12:49.157Z,15.89
2023-01-27T16:15:16.941Z,16.17
2023-01-27T16:17:44.775Z,16.71
2023-01-27T16:20:13.537Z,17.33
2023-01-27T16:22:41.264Z,18.04
2023-01-27T16:25:09.082Z,18.58
2023-01-27T16:27:36.913Z,19.13
2023-01-27T16:30:05.399Z,18.49
2023-01-27T16:32:33.146Z,17.16
2023-01-27T16:35:00.885Z,15.48
2023-01-27T16:37:29.339Z,13.41
2023-01-27T16:39:57.243Z,11.06
2023-01-27T16:42:26.188Z,8.73
2023-01-27T16:44:54.608Z,7.36
2023-01-27T16:47:22.346Z,6.46
2023-01-27T16:49:50.135Z,6.05
2023-01-27T16:52:18.248Z,6.17
2023-01-27T16:54:46.012Z,6.30
2023-01-27T16:57:13.750Z,6.67
2023-01-27T16:59:41.517Z,7.06
2023-01-27T17:02:09.333Z,7.92
2023-01-27T17:04:37.085Z,8.64
2023-01-27T17:07:04.879Z,9.67
2023-01-27T17:09:32.862Z,10.33
2023-01-27T17:12:01.771Z,11.08
2023-01-27T17:14:31.442Z,11.97
2023-01-27T17:16:59.730Z,12.73
2023-01-27T17:19:27.616Z,13.51
2023-01-27T17:21:55.389Z,14.23
2023-01-27T17:24:23.283Z,15.47
2023-01-27T17:26:51.060Z,15.52
2023-01-27T17:29:18.830Z,16.30
2023-01-27T17:31:46.585Z,17.11
2023-01-27T17:34:14.327Z,17.62
2023-01-27T17:36:42.033Z,18.40
2023-01-27T17:39:09.754Z,18.76
2023-01-27T17:41:37.521Z,19.39
2023-01-27T17:44:05.361Z,20.02
2023-01-27T17:46:33.226Z,20.28
2023-01-27T17:49:01.196Z,20.46
2023-01-27T17:51:28.899Z,20.69
2023-01-27T17:53:56.642Z,20.86
2023-01-27T17:56:24.378Z,21.22
2023-01-27T17:58:52.117Z,21.80
2023-01-27T18:01:20.054Z,22.13
2023-01-27T18:03:47.748Z,22.61
2023-01-27T18:06:15.515Z,22.63
2023-01-27T18:08:43.226Z,23.22
2023-01-27T18:11:11.088Z,23.67
2023-01-27T18:13:38.899Z,23.83
2023-01-27T18:16:06.828Z,23.66
2023-01-27T18:18:34.625Z,23.89
2023-01-27T18:21:02.371Z,23.87
2023-01-27T18:23:30.221Z,21.78
2023-01-27T18:25:57.984Z,15.25
2023-01-27T18:28:25.771Z,10.97
2023-01-27T18:30:53.870Z,9.16
2023-01-27T18:33:21.652Z,8.66
2023-01-27T18:35:49.465Z,8.23
2023-01-27T18:38:17.325Z,6.82
2023-01-27T18:40:45.142Z,6.27
2023-01-27T18:43:12.819Z,5.63
2023-01-27T18:45:42.157Z,5.22
2023-01-27T18:48:09.833Z,5.06
2023-01-27T18:50:37.573Z,4.81
2023-01-27T18:53:05.274Z,5.04
2023-01-27T18:55:33.151Z,5.02
2023-01-27T18:58:00.935Z,5.38
2023-01-27T19:00:29.571Z,6.21
2023-01-27T19:02:59.149Z,6.93
2023-01-27T19:05:27.175Z,7.60
2023-01-27T19:07:56.219Z,8.47
2023-01-27T19:10:40.834Z,9.16
2023-01-27T19:13:08.909Z,10.05
2023-01-27T19:15:42.305Z,10.88
2023-01-27T19:18:19.276Z,12.03
2023-01-27T19:20:47.030Z,12.90
2023-01-27T19:23:15.371Z,13.29
2023-01-27T19:25:43.157Z,13.96
2023-01-27T19:28:11.116Z,14.96
2023-01-27T19:30:42.566Z,15.72
2023-01-27T19:33:10.757Z,16.26
2023-01-27T19:35:38.663Z,16.95
2023-01-27T19:38:06.539Z,17.62
2023-01-27T19:40:34.329Z,17.75
2023-01-27T19:43:05.719Z,18.50
2023-01-27T19:45:33.709Z,19.23
2023-01-27T19:48:02.106Z,19.59
2023-01-27T19:50:31.181Z,20.00
2023-01-27T19:52:59.047Z,20.53
2023-01-27T19:55:26.844Z,20.87
2023-01-27T19:57:54.604Z,21.42
2023-01-27T20:00:22.605Z,21.34
2023-01-27T20:02:50.533Z,20.86
2023-01-27T20:05:18.227Z,21.14
2023-01-27T20:07:46.070Z,21.41
2023-01-27T20:10:13.861Z,21.87
2023-01-27T20:12:41.977Z,21.94
2023-01-27T20:15:09.775Z,22.02
2023-01-27T20:17:37.589Z,22.89
2023-01-27T20:20:05.326Z,22.47
2023-01-27T20:22:39.692Z,23.26
2023-01-27T20:25:10.673Z,22.98
2023-01-27T20:27:41.384Z,23.32
2023-01-27T20:30:12.053Z,23.76
2023-01-27T20:32:42.917Z,23.75
2023-01-27T20:35:10.834Z,23.84
2023-01-27T20:37:38.732Z,24.08
2023-01-27T20:40:07.073Z,23.89
2023-01-27T20:42:34.894Z,24.28
2023-01-27T20:45:02.682Z,24.22
2023-01-27T20:47:30.511Z,24.30
2023-01-27T20:50:01.942Z,24.51
2023-01-27T20:52:33.079Z,24.55
2023-01-27T20:55:05.194Z,24.82
2023-01-27T20:57:32.957Z,24.88
2023-01-27T21:00:01.552Z,25.14
2023-01-27T21:02:45.418Z,25.63
2023-01-27T21:05:13.613Z,25.25
2023-01-27T21:07:44.105Z,25.78
2023-01-27T21:10:11.864Z,25.75
2023-01-27T21:12:42.142Z,25.93
2023-01-27T21:15:10.475Z,25.80
2023-01-27T21:17:38.436Z,26.20
2023-01-27T21:20:06.235Z,26.52
2023-01-27T21:22:34.876Z,26.22
2023-01-27T21:25:02.706Z,26.63
2023-01-27T21:27:30.504Z,27.06
2023-01-27T21:29:58.291Z,26.35
2023-01-27T21:32:27.781Z,26.84
2023-01-27T21:35:03.484Z,26.86
2023-01-27T21:37:33.802Z,26.89
2023-01-27T21:40:01.661Z,27.24
2023-01-27T21:42:47.251Z,27.05
2023-01-27T21:45:16.858Z,27.26
2023-01-27T21:47:44.930Z,27.33
2023-01-27T21:50:14.648Z,27.14
2023-01-27T21:52:43.015Z,27.52
2023-01-27T21:55:10.777Z,27.57
2023-01-27T21:57:38.592Z,27.55
2023-01-27T22:00:06.469Z,27.75
2023-01-27T22:02:34.237Z,27.85
2023-01-27T22:05:02.170Z,27.92
2023-01-27T22:07:34.282Z,27.80
2023-01-27T22:10:02.154Z,27.68
2023-01-27T22:12:30.038Z,27.49
2023-01-27T22:14:57.831Z,27.62
2023-01-27T22:17:25.640Z,27.62
2023-01-27T22:19:53.429Z,28.10
2023-01-27T22:22:21.240Z,27.66
2023-01-27T22:24:49.115Z,27.92
2023-01-27T22:27:16.899Z,28.10
2023-01-27T22:29:44.807Z,27.83
2023-01-27T22:32:12.649Z,28.34
2023-01-27T22:34:40.513Z,28.03
2023-01-27T22:37:08.397Z,27.89
2023-01-27T22:39:36.190Z,27.95
2023-01-27T22:42:03.985Z,27.48
2023-01-27T22:44:31.799Z,28.11
2023-01-27T22:46:59.945Z,28.09
2023-01-27T22:49:27.707Z,28.22
2023-01-27T22:51:55.423Z,27.99
2023-01-27T22:54:23.230Z,28.18
2023-01-27T22:56:50.990Z,27.83
2023-01-27T22:59:18.698Z,28.22
2023-01-27T23:01:46.423Z,27.89
2023-01-27T23:04:14.232Z,28.16
2023-01-27T23:06:42.020Z,28.22
2023-01-27T23:09:09.729Z,27.93
2023-01-27T23:11:37.444Z,28.26
2023-01-27T23:14:05.141Z,28.03
2023-01-27T23:16:32.854Z,28.49
2023-01-27T23:19:00.600Z,28.65
2023-01-27T23:21:28.354Z,28.08
2023-01-27T23:23:56.088Z,28.32
2023-01-27T23:26:23.805Z,28.54
2023-01-27T23:28:51.563Z,28.65
2023-01-27T23:31:19.446Z,28.52
2023-01-27T23:33:48.063Z,28.91
2023-01-27T23:36:15.775Z,28.29
2023-01-27T23:38:43.652Z,28.48
2023-01-27T23:41:12.672Z,28.95
2023-01-27T23:43:40.432Z,28.42
2023-01-27T23:46:08.184Z,28.92
2023-01-27T23:48:35.976Z,28.72
2023-01-27T23:51:03.695Z,28.44
2023-01-27T23:53:31.364Z,28.64
2023-01-27T23:55:59.091Z,28.98
2023-01-27T23:58:26.829Z,28.84
